sensor_id;sensor_type;location;lat;lon;timestamp;P1;durP1;ratioP1;P2;durP2;ratioP2
57826;SDS011;43656;57.746;11.780;2022-11-30T00:03:35;9.27;;;5.15;;
57826;SDS011;43656;57.746;11.780;2022-11-30T00:06:07;9.40;;;4.80;;
57826;SDS011;43656;57.746;11.780;2022-11-30T00:08:35;7.63;;;4.75;;
57826;SDS011;43656;57.746;11.780;2022-11-30T00:11:08;8.90;;;4.60;;
57826;SDS011;43656;57.746;11.780;2022-11-30T00:13:37;11.40;;;5.07;;
57826;SDS011;43656;57.746;11.780;2022-11-30T00:16:03;9.20;;;5.07;;
57826;SDS011;43656;57.746;11.780;2022-11-30T00:18:29;9.63;;;4.50;;
57826;SDS011;43656;57.746;11.780;2022-11-30T00:20:55;9.38;;;5.35;;
57826;SDS011;43656;57.746;11.780;2022-11-30T00:23:23;9.88;;;5.30;;
57826;SDS011;43656;57.746;11.780;2022-11-30T00:25:49;8.35;;;5.15;;
57826;SDS011;43656;57.746;11.780;2022-11-30T00:28:14;10.70;;;5.03;;
57826;SDS011;43656;57.746;11.780;2022-11-30T00:30:39;8.48;;;5.50;;
57826;SDS011;43656;57.746;11.780;2022-11-30T00:33:05;9.88;;;5.60;;
57826;SDS011;43656;57.746;11.780;2022-11-30T00:35:30;7.43;;;5.18;;
57826;SDS011;43656;57.746;11.780;2022-11-30T00:37:56;8.15;;;5.85;;
57826;SDS011;43656;57.746;11.780;2022-11-30T00:40:21;9.70;;;5.30;;
57826;SDS011;43656;57.746;11.780;2022-11-30T00:42:47;12.50;;;6.00;;
57826;SDS011;43656;57.746;11.780;2022-11-30T00:45:12;10.32;;;5.90;;
57826;SDS011;43656;57.746;11.780;2022-11-30T00:47:37;10.13;;;5.57;;
57826;SDS011;43656;57.746;11.780;2022-11-30T00:50:03;8.57;;;4.75;;
57826;SDS011;43656;57.746;11.780;2022-11-30T00:52:29;8.65;;;5.25;;
57826;SDS011;43656;57.746;11.780;2022-11-30T00:54:55;8.50;;;5.30;;
57826;SDS011;43656;57.746;11.780;2022-11-30T00:57:20;8.77;;;5.13;;
57826;SDS011;43656;57.746;11.780;2022-11-30T00:59:46;8.40;;;5.22;;
57826;SDS011;43656;57.746;11.780;2022-11-30T01:02:11;9.05;;;5.43;;
57826;SDS011;43656;57.746;11.780;2022-11-30T01:04:36;8.52;;;5.10;;
57826;SDS011;43656;57.746;11.780;2022-11-30T01:07:02;9.40;;;5.70;;
57826;SDS011;43656;57.746;11.780;2022-11-30T01:09:27;8.40;;;5.13;;
57826;SDS011;43656;57.746;11.780;2022-11-30T01:11:53;8.45;;;5.40;;
57826;SDS011;43656;57.746;11.780;2022-11-30T01:14:18;9.13;;;5.47;;
57826;SDS011;43656;57.746;11.780;2022-11-30T01:16:43;8.73;;;5.63;;
57826;SDS011;43656;57.746;11.780;2022-11-30T01:19:09;11.93;;;5.70;;
57826;SDS011;43656;57.746;11.780;2022-11-30T01:21:34;9.65;;;5.28;;
57826;SDS011;43656;57.746;11.780;2022-11-30T01:24:00;10.00;;;5.72;;
57826;SDS011;43656;57.746;11.780;2022-11-30T01:26:25;13.13;;;5.93;;
57826;SDS011;43656;57.746;11.780;2022-11-30T01:28:54;9.25;;;5.40;;
57826;SDS011;43656;57.746;11.780;2022-11-30T01:31:20;10.38;;;6.15;;
57826;SDS011;43656;57.746;11.780;2022-11-30T01:33:48;9.85;;;5.85;;
57826;SDS011;43656;57.746;11.780;2022-11-30T01:36:20;9.80;;;5.55;;
57826;SDS011;43656;57.746;11.780;2022-11-30T01:38:48;9.80;;;5.70;;
57826;SDS011;43656;57.746;11.780;2022-11-30T01:41:20;9.90;;;6.15;;
57826;SDS011;43656;57.746;11.780;2022-11-30T01:43:52;11.35;;;6.00;;
57826;SDS011;43656;57.746;11.780;2022-11-30T01:46:35;9.40;;;5.60;;
57826;SDS011;43656;57.746;11.780;2022-11-30T01:54:08;9.70;;;5.93;;
57826;SDS011;43656;57.746;11.780;2022-11-30T01:56:36;10.68;;;6.18;;
57826;SDS011;43656;57.746;11.780;2022-11-30T01:59:04;11.02;;;6.25;;
57826;SDS011;43656;57.746;11.780;2022-11-30T02:01:30;10.82;;;6.07;;
57826;SDS011;43656;57.746;11.780;2022-11-30T02:03:58;11.30;;;6.32;;
57826;SDS011;43656;57.746;11.780;2022-11-30T02:06:27;11.48;;;5.95;;
57826;SDS011;43656;57.746;11.780;2022-11-30T02:08:53;9.05;;;5.85;;
57826;SDS011;43656;57.746;11.780;2022-11-30T02:11:19;10.32;;;6.05;;
57826;SDS011;43656;57.746;11.780;2022-11-30T02:27:34;9.13;;;5.65;;
57826;SDS011;43656;57.746;11.780;2022-11-30T02:30:12;11.60;;;5.75;;
57826;SDS011;43656;57.746;11.780;2022-11-30T02:32:55;10.88;;;5.60;;
57826;SDS011;43656;57.746;11.780;2022-11-30T02:35:28;9.07;;;5.78;;
57826;SDS011;43656;57.746;11.780;2022-11-30T02:37:57;9.83;;;5.97;;
57826;SDS011;43656;57.746;11.780;2022-11-30T02:40:25;9.13;;;5.57;;
57826;SDS011;43656;57.746;11.780;2022-11-30T02:42:51;10.05;;;5.20;;
57826;SDS011;43656;57.746;11.780;2022-11-30T02:45:30;11.80;;;6.32;;
57826;SDS011;43656;57.746;11.780;2022-11-30T02:48:06;9.43;;;5.55;;
57826;SDS011;43656;57.746;11.780;2022-11-30T02:50:38;9.02;;;5.25;;
57826;SDS011;43656;57.746;11.780;2022-11-30T02:53:08;9.88;;;5.88;;
57826;SDS011;43656;57.746;11.780;2022-11-30T02:55:34;10.13;;;5.55;;
57826;SDS011;43656;57.746;11.780;2022-11-30T02:58:00;9.82;;;5.85;;
57826;SDS011;43656;57.746;11.780;2022-11-30T03:00:25;11.00;;;5.75;;
57826;SDS011;43656;57.746;11.780;2022-11-30T03:02:53;10.85;;;5.13;;
57826;SDS011;43656;57.746;11.780;2022-11-30T03:05:19;9.13;;;5.70;;
57826;SDS011;43656;57.746;11.780;2022-11-30T03:07:44;8.60;;;5.43;;
57826;SDS011;43656;57.746;11.780;2022-11-30T03:10:10;9.18;;;5.65;;
57826;SDS011;43656;57.746;11.780;2022-11-30T03:12:35;7.95;;;5.07;;
57826;SDS011;43656;57.746;11.780;2022-11-30T03:15:01;9.20;;;5.22;;
57826;SDS011;43656;57.746;11.780;2022-11-30T03:17:26;8.70;;;5.35;;
57826;SDS011;43656;57.746;11.780;2022-11-30T03:19:52;8.88;;;5.55;;
57826;SDS011;43656;57.746;11.780;2022-11-30T03:22:17;11.10;;;5.68;;
57826;SDS011;43656;57.746;11.780;2022-11-30T03:24:43;7.15;;;4.72;;
57826;SDS011;43656;57.746;11.780;2022-11-30T03:27:08;8.93;;;5.18;;
57826;SDS011;43656;57.746;11.780;2022-11-30T03:29:33;7.43;;;4.90;;
57826;SDS011;43656;57.746;11.780;2022-11-30T03:31:59;11.15;;;4.97;;
57826;SDS011;43656;57.746;11.780;2022-11-30T03:34:24;8.68;;;5.28;;
57826;SDS011;43656;57.746;11.780;2022-11-30T03:36:51;9.05;;;5.07;;
57826;SDS011;43656;57.746;11.780;2022-11-30T03:39:17;8.05;;;4.60;;
57826;SDS011;43656;57.746;11.780;2022-11-30T03:41:42;9.35;;;4.78;;
57826;SDS011;43656;57.746;11.780;2022-11-30T03:44:08;9.30;;;4.93;;
57826;SDS011;43656;57.746;11.780;2022-11-30T03:46:33;8.38;;;4.97;;
57826;SDS011;43656;57.746;11.780;2022-11-30T03:48:58;8.75;;;4.95;;
57826;SDS011;43656;57.746;11.780;2022-11-30T03:51:24;7.45;;;4.93;;
57826;SDS011;43656;57.746;11.780;2022-11-30T03:53:49;7.95;;;5.15;;
57826;SDS011;43656;57.746;11.780;2022-11-30T03:56:15;9.15;;;4.93;;
57826;SDS011;43656;57.746;11.780;2022-11-30T03:58:40;7.75;;;4.78;;
57826;SDS011;43656;57.746;11.780;2022-11-30T04:01:11;8.88;;;5.05;;
57826;SDS011;43656;57.746;11.780;2022-11-30T04:03:39;9.15;;;5.07;;
57826;SDS011;43656;57.746;11.780;2022-11-30T04:06:05;9.23;;;5.50;;
57826;SDS011;43656;57.746;11.780;2022-11-30T04:08:32;7.95;;;4.50;;
57826;SDS011;43656;57.746;11.780;2022-11-30T04:10:59;10.30;;;5.22;;
57826;SDS011;43656;57.746;11.780;2022-11-30T04:13:25;8.93;;;5.80;;
57826;SDS011;43656;57.746;11.780;2022-11-30T04:15:51;9.48;;;5.28;;
57826;SDS011;43656;57.746;11.780;2022-11-30T04:18:18;8.40;;;4.95;;
57826;SDS011;43656;57.746;11.780;2022-11-30T04:20:44;8.32;;;4.95;;
57826;SDS011;43656;57.746;11.780;2022-11-30T04:23:10;7.70;;;4.95;;
57826;SDS011;43656;57.746;11.780;2022-11-30T04:25:36;9.13;;;5.00;;
57826;SDS011;43656;57.746;11.780;2022-11-30T04:28:03;8.95;;;4.57;;
57826;SDS011;43656;57.746;11.780;2022-11-30T04:30:28;9.45;;;5.13;;
57826;SDS011;43656;57.746;11.780;2022-11-30T04:32:54;9.20;;;5.40;;
57826;SDS011;43656;57.746;11.780;2022-11-30T04:35:19;9.20;;;4.90;;
57826;SDS011;43656;57.746;11.780;2022-11-30T04:37:44;8.88;;;5.05;;
57826;SDS011;43656;57.746;11.780;2022-11-30T04:40:10;8.00;;;4.85;;
57826;SDS011;43656;57.746;11.780;2022-11-30T04:42:36;7.80;;;4.55;;
57826;SDS011;43656;57.746;11.780;2022-11-30T04:45:01;7.05;;;4.63;;
57826;SDS011;43656;57.746;11.780;2022-11-30T04:47:27;7.85;;;4.30;;
57826;SDS011;43656;57.746;11.780;2022-11-30T04:49:52;7.28;;;4.25;;
57826;SDS011;43656;57.746;11.780;2022-11-30T04:52:18;6.15;;;4.00;;
57826;SDS011;43656;57.746;11.780;2022-11-30T04:54:43;9.60;;;5.20;;
57826;SDS011;43656;57.746;11.780;2022-11-30T04:57:09;9.57;;;4.72;;
57826;SDS011;43656;57.746;11.780;2022-11-30T04:59:34;8.80;;;4.63;;
57826;SDS011;43656;57.746;11.780;2022-11-30T05:01:59;9.40;;;4.65;;
57826;SDS011;43656;57.746;11.780;2022-11-30T05:04:25;6.70;;;4.30;;
57826;SDS011;43656;57.746;11.780;2022-11-30T05:06:50;7.45;;;4.28;;
57826;SDS011;43656;57.746;11.780;2022-11-30T05:09:15;7.72;;;4.13;;
57826;SDS011;43656;57.746;11.780;2022-11-30T05:11:41;10.40;;;5.07;;
57826;SDS011;43656;57.746;11.780;2022-11-30T05:14:06;6.43;;;4.50;;
57826;SDS011;43656;57.746;11.780;2022-11-30T05:16:32;8.80;;;4.57;;
57826;SDS011;43656;57.746;11.780;2022-11-30T05:18:57;7.90;;;4.30;;
57826;SDS011;43656;57.746;11.780;2022-11-30T05:21:22;8.57;;;4.40;;
57826;SDS011;43656;57.746;11.780;2022-11-30T05:23:48;7.72;;;4.70;;
57826;SDS011;43656;57.746;11.780;2022-11-30T05:26:14;7.45;;;4.82;;
57826;SDS011;43656;57.746;11.780;2022-11-30T05:28:39;10.00;;;6.13;;
57826;SDS011;43656;57.746;11.780;2022-11-30T05:31:05;12.23;;;6.68;;
57826;SDS011;43656;57.746;11.780;2022-11-30T05:33:31;15.02;;;7.25;;
57826;SDS011;43656;57.746;11.780;2022-11-30T05:35:57;8.90;;;4.60;;
57826;SDS011;43656;57.746;11.780;2022-11-30T05:38:22;7.90;;;4.85;;
57826;SDS011;43656;57.746;11.780;2022-11-30T05:40:47;8.38;;;4.45;;
57826;SDS011;43656;57.746;11.780;2022-11-30T05:43:13;6.72;;;3.92;;
57826;SDS011;43656;57.746;11.780;2022-11-30T05:45:38;6.68;;;4.40;;
57826;SDS011;43656;57.746;11.780;2022-11-30T05:48:04;6.75;;;4.43;;
57826;SDS011;43656;57.746;11.780;2022-11-30T05:50:32;9.95;;;4.78;;
57826;SDS011;43656;57.746;11.780;2022-11-30T05:52:57;8.50;;;4.00;;
57826;SDS011;43656;57.746;11.780;2022-11-30T05:55:25;7.50;;;4.38;;
57826;SDS011;43656;57.746;11.780;2022-11-30T05:57:52;7.78;;;4.38;;
57826;SDS011;43656;57.746;11.780;2022-11-30T06:00:18;8.18;;;4.63;;
57826;SDS011;43656;57.746;11.780;2022-11-30T06:02:44;7.47;;;4.10;;
57826;SDS011;43656;57.746;11.780;2022-11-30T06:05:10;8.30;;;4.30;;
57826;SDS011;43656;57.746;11.780;2022-11-30T06:07:37;5.50;;;3.72;;
57826;SDS011;43656;57.746;11.780;2022-11-30T06:10:03;6.82;;;4.22;;
57826;SDS011;43656;57.746;11.780;2022-11-30T06:12:29;8.60;;;4.15;;
57826;SDS011;43656;57.746;11.780;2022-11-30T06:14:54;7.00;;;4.10;;
57826;SDS011;43656;57.746;11.780;2022-11-30T06:17:19;7.88;;;4.07;;
57826;SDS011;43656;57.746;11.780;2022-11-30T06:19:45;6.93;;;4.25;;
57826;SDS011;43656;57.746;11.780;2022-11-30T06:22:10;8.85;;;4.10;;
57826;SDS011;43656;57.746;11.780;2022-11-30T06:24:35;5.57;;;3.67;;
57826;SDS011;43656;57.746;11.780;2022-11-30T06:27:01;6.28;;;3.80;;
57826;SDS011;43656;57.746;11.780;2022-11-30T06:29:26;8.75;;;4.30;;
57826;SDS011;43656;57.746;11.780;2022-11-30T06:31:52;5.43;;;3.60;;
57826;SDS011;43656;57.746;11.780;2022-11-30T06:34:17;7.60;;;4.40;;
57826;SDS011;43656;57.746;11.780;2022-11-30T06:36:42;5.85;;;3.95;;
57826;SDS011;43656;57.746;11.780;2022-11-30T06:39:09;7.93;;;4.32;;
57826;SDS011;43656;57.746;11.780;2022-11-30T06:41:35;6.65;;;3.88;;
57826;SDS011;43656;57.746;11.780;2022-11-30T06:44:00;6.68;;;3.97;;
57826;SDS011;43656;57.746;11.780;2022-11-30T06:46:25;7.80;;;4.15;;
57826;SDS011;43656;57.746;11.780;2022-11-30T06:48:51;5.40;;;3.60;;
57826;SDS011;43656;57.746;11.780;2022-11-30T06:51:17;6.57;;;3.85;;
57826;SDS011;43656;57.746;11.780;2022-11-30T06:53:43;7.18;;;3.65;;
57826;SDS011;43656;57.746;11.780;2022-11-30T06:56:09;7.22;;;3.95;;
57826;SDS011;43656;57.746;11.780;2022-11-30T06:58:38;6.95;;;3.60;;
57826;SDS011;43656;57.746;11.780;2022-11-30T07:01:04;7.38;;;3.80;;
57826;SDS011;43656;57.746;11.780;2022-11-30T07:03:35;7.95;;;3.63;;
57826;SDS011;43656;57.746;11.780;2022-11-30T07:06:04;6.15;;;3.83;;
57826;SDS011;43656;57.746;11.780;2022-11-30T07:08:31;8.10;;;3.90;;
57826;SDS011;43656;57.746;11.780;2022-11-30T07:10:58;7.25;;;4.00;;
57826;SDS011;43656;57.746;11.780;2022-11-30T07:13:23;7.32;;;4.13;;
57826;SDS011;43656;57.746;11.780;2022-11-30T07:15:49;8.73;;;4.13;;
57826;SDS011;43656;57.746;11.780;2022-11-30T07:18:14;6.60;;;3.63;;
57826;SDS011;43656;57.746;11.780;2022-11-30T07:20:40;6.05;;;4.03;;
57826;SDS011;43656;57.746;11.780;2022-11-30T07:23:06;6.03;;;4.00;;
57826;SDS011;43656;57.746;11.780;2022-11-30T07:25:50;7.30;;;3.97;;
57826;SDS011;43656;57.746;11.780;2022-11-30T07:28:34;5.72;;;4.00;;
57826;SDS011;43656;57.746;11.780;2022-11-30T07:31:01;11.15;;;4.50;;
57826;SDS011;43656;57.746;11.780;2022-11-30T07:33:47;7.32;;;3.95;;
57826;SDS011;43656;57.746;11.780;2022-11-30T07:36:14;7.65;;;3.90;;
57826;SDS011;43656;57.746;11.780;2022-11-30T07:38:41;7.78;;;3.78;;
57826;SDS011;43656;57.746;11.780;2022-11-30T07:41:06;5.57;;;3.88;;
57826;SDS011;43656;57.746;11.780;2022-11-30T07:43:32;7.75;;;3.72;;
57826;SDS011;43656;57.746;11.780;2022-11-30T07:45:57;6.25;;;4.18;;
57826;SDS011;43656;57.746;11.780;2022-11-30T07:48:24;8.38;;;3.83;;
57826;SDS011;43656;57.746;11.780;2022-11-30T07:50:49;7.13;;;3.90;;
57826;SDS011;43656;57.746;11.780;2022-11-30T07:53:15;7.50;;;4.03;;
57826;SDS011;43656;57.746;11.780;2022-11-30T07:55:41;5.32;;;3.65;;
57826;SDS011;43656;57.746;11.780;2022-11-30T07:58:07;5.57;;;3.88;;
57826;SDS011;43656;57.746;11.780;2022-11-30T08:00:34;8.88;;;4.50;;
57826;SDS011;43656;57.746;11.780;2022-11-30T08:03:00;7.07;;;4.18;;
57826;SDS011;43656;57.746;11.780;2022-11-30T08:05:25;6.03;;;3.90;;
57826;SDS011;43656;57.746;11.780;2022-11-30T08:07:51;6.10;;;4.18;;
57826;SDS011;43656;57.746;11.780;2022-11-30T08:10:21;6.72;;;4.20;;
57826;SDS011;43656;57.746;11.780;2022-11-30T08:12:47;8.27;;;4.10;;
57826;SDS011;43656;57.746;11.780;2022-11-30T08:15:13;7.13;;;4.18;;
57826;SDS011;43656;57.746;11.780;2022-11-30T08:17:39;6.22;;;3.83;;
57826;SDS011;43656;57.746;11.780;2022-11-30T08:20:05;7.78;;;4.32;;
57826;SDS011;43656;57.746;11.780;2022-11-30T08:22:32;8.48;;;3.92;;
57826;SDS011;43656;57.746;11.780;2022-11-30T08:24:57;7.05;;;4.05;;
57826;SDS011;43656;57.746;11.780;2022-11-30T08:27:23;7.63;;;4.30;;
57826;SDS011;43656;57.746;11.780;2022-11-30T08:29:48;8.52;;;3.97;;
57826;SDS011;43656;57.746;11.780;2022-11-30T08:32:13;6.50;;;4.30;;
57826;SDS011;43656;57.746;11.780;2022-11-30T08:34:39;5.93;;;4.05;;
57826;SDS011;43656;57.746;11.780;2022-11-30T08:37:04;7.32;;;4.05;;
57826;SDS011;43656;57.746;11.780;2022-11-30T08:39:30;8.73;;;4.28;;
57826;SDS011;43656;57.746;11.780;2022-11-30T08:41:58;7.28;;;3.88;;
57826;SDS011;43656;57.746;11.780;2022-11-30T08:44:23;5.90;;;3.80;;
57826;SDS011;43656;57.746;11.780;2022-11-30T08:46:48;8.65;;;3.97;;
57826;SDS011;43656;57.746;11.780;2022-11-30T08:49:14;11.57;;;3.97;;
57826;SDS011;43656;57.746;11.780;2022-11-30T08:51:39;7.50;;;4.35;;
57826;SDS011;43656;57.746;11.780;2022-11-30T08:54:04;6.70;;;3.67;;
57826;SDS011;43656;57.746;11.780;2022-11-30T08:56:30;7.50;;;4.22;;
57826;SDS011;43656;57.746;11.780;2022-11-30T08:58:55;7.63;;;3.90;;
57826;SDS011;43656;57.746;11.780;2022-11-30T09:01:21;6.97;;;3.72;;
57826;SDS011;43656;57.746;11.780;2022-11-30T09:03:49;6.07;;;3.70;;
57826;SDS011;43656;57.746;11.780;2022-11-30T09:06:27;5.07;;;3.55;;
57826;SDS011;43656;57.746;11.780;2022-11-30T09:08:54;5.32;;;3.75;;
57826;SDS011;43656;57.746;11.780;2022-11-30T09:11:25;7.38;;;3.83;;
57826;SDS011;43656;57.746;11.780;2022-11-30T09:13:54;6.40;;;3.70;;
57826;SDS011;43656;57.746;11.780;2022-11-30T09:16:21;7.78;;;3.70;;
57826;SDS011;43656;57.746;11.780;2022-11-30T09:18:47;8.25;;;3.78;;
57826;SDS011;43656;57.746;11.780;2022-11-30T09:21:17;5.30;;;3.50;;
57826;SDS011;43656;57.746;11.780;2022-11-30T09:23:45;5.40;;;3.72;;
57826;SDS011;43656;57.746;11.780;2022-11-30T09:26:11;6.38;;;3.70;;
57826;SDS011;43656;57.746;11.780;2022-11-30T09:28:38;6.35;;;3.80;;
57826;SDS011;43656;57.746;11.780;2022-11-30T09:31:05;5.68;;;4.00;;
57826;SDS011;43656;57.746;11.780;2022-11-30T09:33:36;5.28;;;3.35;;
57826;SDS011;43656;57.746;11.780;2022-11-30T09:36:05;5.75;;;3.47;;
57826;SDS011;43656;57.746;11.780;2022-11-30T09:38:33;7.80;;;3.50;;
57826;SDS011;43656;57.746;11.780;2022-11-30T09:40:59;8.05;;;3.75;;
57826;SDS011;43656;57.746;11.780;2022-11-30T09:46:15;6.68;;;3.65;;
57826;SDS011;43656;57.746;11.780;2022-11-30T09:51:15;6.43;;;3.60;;
57826;SDS011;43656;57.746;11.780;2022-11-30T09:53:45;5.43;;;3.50;;
57826;SDS011;43656;57.746;11.780;2022-11-30T09:56:26;6.50;;;4.53;;
57826;SDS011;43656;57.746;11.780;2022-11-30T09:58:55;7.13;;;4.25;;
57826;SDS011;43656;57.746;11.780;2022-11-30T10:01:42;8.30;;;3.70;;
57826;SDS011;43656;57.746;11.780;2022-11-30T10:04:18;6.97;;;4.07;;
57826;SDS011;43656;57.746;11.780;2022-11-30T10:06:59;6.80;;;3.67;;
57826;SDS011;43656;57.746;11.780;2022-11-30T10:09:59;6.70;;;3.83;;
57826;SDS011;43656;57.746;11.780;2022-11-30T10:12:41;6.43;;;3.75;;
57826;SDS011;43656;57.746;11.780;2022-11-30T10:17:54;6.57;;;4.18;;
57826;SDS011;43656;57.746;11.780;2022-11-30T10:23:06;5.55;;;3.67;;
57826;SDS011;43656;57.746;11.780;2022-11-30T10:25:47;6.80;;;3.65;;
57826;SDS011;43656;57.746;11.780;2022-11-30T10:30:51;4.55;;;3.33;;
57826;SDS011;43656;57.746;11.780;2022-11-30T10:33:22;5.93;;;3.40;;
57826;SDS011;43656;57.746;11.780;2022-11-30T10:35:52;4.97;;;3.63;;
57826;SDS011;43656;57.746;11.780;2022-11-30T10:38:24;4.55;;;3.55;;
57826;SDS011;43656;57.746;11.780;2022-11-30T10:40:57;4.32;;;3.25;;
57826;SDS011;43656;57.746;11.780;2022-11-30T10:43:28;5.07;;;3.00;;
57826;SDS011;43656;57.746;11.780;2022-11-30T10:45:58;5.82;;;3.05;;
57826;SDS011;43656;57.746;11.780;2022-11-30T10:50:55;4.45;;;3.33;;
57826;SDS011;43656;57.746;11.780;2022-11-30T10:53:21;5.18;;;3.30;;
57826;SDS011;43656;57.746;11.780;2022-11-30T10:56:06;4.40;;;2.67;;
57826;SDS011;43656;57.746;11.780;2022-11-30T10:58:38;4.57;;;3.05;;
57826;SDS011;43656;57.746;11.780;2022-11-30T11:01:33;4.65;;;3.25;;
57826;SDS011;43656;57.746;11.780;2022-11-30T11:04:22;4.22;;;3.10;;
57826;SDS011;43656;57.746;11.780;2022-11-30T11:06:50;5.03;;;3.65;;
57826;SDS011;43656;57.746;11.780;2022-11-30T11:09:23;6.43;;;3.45;;
57826;SDS011;43656;57.746;11.780;2022-11-30T11:12:24;4.68;;;3.38;;
57826;SDS011;43656;57.746;11.780;2022-11-30T11:17:42;5.05;;;3.30;;
57826;SDS011;43656;57.746;11.780;2022-11-30T11:22:55;7.97;;;3.97;;
57826;SDS011;43656;57.746;11.780;2022-11-30T11:25:21;7.65;;;3.55;;
57826;SDS011;43656;57.746;11.780;2022-11-30T11:27:59;6.18;;;3.53;;
57826;SDS011;43656;57.746;11.780;2022-11-30T11:30:29;5.38;;;3.40;;
57826;SDS011;43656;57.746;11.780;2022-11-30T11:32:57;5.80;;;3.80;;
57826;SDS011;43656;57.746;11.780;2022-11-30T11:35:44;7.30;;;3.53;;
57826;SDS011;43656;57.746;11.780;2022-11-30T11:43:55;6.57;;;4.13;;
57826;SDS011;43656;57.746;11.780;2022-11-30T11:46:24;11.60;;;4.40;;
57826;SDS011;43656;57.746;11.780;2022-11-30T11:51:29;9.63;;;5.15;;
57826;SDS011;43656;57.746;11.780;2022-11-30T11:53:56;13.15;;;5.93;;
57826;SDS011;43656;57.746;11.780;2022-11-30T11:59:03;10.30;;;5.93;;
57826;SDS011;43656;57.746;11.780;2022-11-30T12:12:55;6.88;;;4.90;;
57826;SDS011;43656;57.746;11.780;2022-11-30T12:15:27;7.65;;;4.57;;
57826;SDS011;43656;57.746;11.780;2022-11-30T12:18:14;7.85;;;4.55;;
57826;SDS011;43656;57.746;11.780;2022-11-30T12:20:57;7.05;;;4.00;;
57826;SDS011;43656;57.746;11.780;2022-11-30T12:26:50;8.02;;;4.20;;
57826;SDS011;43656;57.746;11.780;2022-11-30T12:32:47;8.98;;;4.43;;
57826;SDS011;43656;57.746;11.780;2022-11-30T12:43:48;7.68;;;4.80;;
57826;SDS011;43656;57.746;11.780;2022-11-30T12:46:57;9.18;;;4.75;;
57826;SDS011;43656;57.746;11.780;2022-11-30T12:52:59;8.23;;;5.32;;
57826;SDS011;43656;57.746;11.780;2022-11-30T13:06:08;13.75;;;6.10;;
57826;SDS011;43656;57.746;11.780;2022-11-30T13:11:38;10.43;;;6.15;;
57826;SDS011;43656;57.746;11.780;2022-11-30T13:14:24;10.52;;;5.20;;
57826;SDS011;43656;57.746;11.780;2022-11-30T13:17:01;8.57;;;4.55;;
57826;SDS011;43656;57.746;11.780;2022-11-30T13:21:58;10.52;;;5.95;;
57826;SDS011;43656;57.746;11.780;2022-11-30T13:24:36;12.60;;;6.90;;
57826;SDS011;43656;57.746;11.780;2022-11-30T13:27:11;12.10;;;6.55;;
57826;SDS011;43656;57.746;11.780;2022-11-30T13:32:09;13.70;;;7.68;;
57826;SDS011;43656;57.746;11.780;2022-11-30T13:34:36;12.43;;;6.38;;
57826;SDS011;43656;57.746;11.780;2022-11-30T13:37:10;11.68;;;6.78;;
57826;SDS011;43656;57.746;11.780;2022-11-30T13:45:18;11.50;;;7.05;;
57826;SDS011;43656;57.746;11.780;2022-11-30T13:47:50;13.40;;;7.50;;
57826;SDS011;43656;57.746;11.780;2022-11-30T13:50:21;9.50;;;4.90;;
57826;SDS011;43656;57.746;11.780;2022-11-30T14:02:54;10.60;;;4.30;;
57826;SDS011;43656;57.746;11.780;2022-11-30T14:20:38;7.68;;;4.40;;
57826;SDS011;43656;57.746;11.780;2022-11-30T14:23:06;8.15;;;4.38;;
57826;SDS011;43656;57.746;11.780;2022-11-30T14:25:36;8.60;;;4.93;;
57826;SDS011;43656;57.746;11.780;2022-11-30T14:28:10;7.70;;;4.20;;
57826;SDS011;43656;57.746;11.780;2022-11-30T14:30:40;8.27;;;3.95;;
57826;SDS011;43656;57.746;11.780;2022-11-30T14:33:41;9.32;;;3.65;;
57826;SDS011;43656;57.746;11.780;2022-11-30T14:36:04;4.65;;;3.55;;
57826;SDS011;43656;57.746;11.780;2022-11-30T14:38:33;7.05;;;3.78;;
57826;SDS011;43656;57.746;11.780;2022-11-30T14:41:03;6.68;;;3.65;;
57826;SDS011;43656;57.746;11.780;2022-11-30T14:43:29;7.65;;;3.90;;
57826;SDS011;43656;57.746;11.780;2022-11-30T14:45:55;8.07;;;4.10;;
57826;SDS011;43656;57.746;11.780;2022-11-30T14:48:26;7.53;;;4.25;;
57826;SDS011;43656;57.746;11.780;2022-11-30T14:50:52;7.13;;;3.80;;
57826;SDS011;43656;57.746;11.780;2022-11-30T14:53:42;6.32;;;3.90;;
57826;SDS011;43656;57.746;11.780;2022-11-30T15:01:35;6.57;;;4.03;;
57826;SDS011;43656;57.746;11.780;2022-11-30T15:04:13;6.85;;;3.63;;
57826;SDS011;43656;57.746;11.780;2022-11-30T15:06:41;7.90;;;4.00;;
57826;SDS011;43656;57.746;11.780;2022-11-30T15:09:15;7.90;;;3.97;;
57826;SDS011;43656;57.746;11.780;2022-11-30T15:11:44;5.85;;;3.80;;
57826;SDS011;43656;57.746;11.780;2022-11-30T15:14:11;5.18;;;3.97;;
57826;SDS011;43656;57.746;11.780;2022-11-30T15:16:37;7.00;;;4.25;;
57826;SDS011;43656;57.746;11.780;2022-11-30T15:19:18;5.95;;;4.03;;
57826;SDS011;43656;57.746;11.780;2022-11-30T15:21:46;5.28;;;3.88;;
57826;SDS011;43656;57.746;11.780;2022-11-30T15:24:12;8.77;;;5.07;;
57826;SDS011;43656;57.746;11.780;2022-11-30T15:26:58;25.73;;;15.32;;
57826;SDS011;43656;57.746;11.780;2022-11-30T15:32:29;9.57;;;5.65;;
57826;SDS011;43656;57.746;11.780;2022-11-30T15:34:55;7.35;;;5.15;;
57826;SDS011;43656;57.746;11.780;2022-11-30T15:40:04;9.07;;;4.45;;
57826;SDS011;43656;57.746;11.780;2022-11-30T15:42:33;6.15;;;4.38;;
57826;SDS011;43656;57.746;11.780;2022-11-30T15:48:00;10.68;;;4.55;;
57826;SDS011;43656;57.746;11.780;2022-11-30T15:53:00;6.63;;;4.70;;
57826;SDS011;43656;57.746;11.780;2022-11-30T16:01:27;10.85;;;8.10;;
57826;SDS011;43656;57.746;11.780;2022-11-30T16:03:58;14.82;;;6.50;;
57826;SDS011;43656;57.746;11.780;2022-11-30T16:06:35;11.60;;;6.38;;
57826;SDS011;43656;57.746;11.780;2022-11-30T16:11:56;10.05;;;6.18;;
57826;SDS011;43656;57.746;11.780;2022-11-30T16:14:24;11.73;;;6.65;;
57826;SDS011;43656;57.746;11.780;2022-11-30T16:16:49;11.95;;;5.93;;
57826;SDS011;43656;57.746;11.780;2022-11-30T16:19:17;10.43;;;5.60;;
57826;SDS011;43656;57.746;11.780;2022-11-30T16:21:42;9.73;;;5.13;;
57826;SDS011;43656;57.746;11.780;2022-11-30T16:24:10;11.77;;;5.55;;
57826;SDS011;43656;57.746;11.780;2022-11-30T16:26:37;10.23;;;4.55;;
57826;SDS011;43656;57.746;11.780;2022-11-30T16:29:03;8.02;;;5.10;;
57826;SDS011;43656;57.746;11.780;2022-11-30T16:31:28;7.40;;;5.10;;
57826;SDS011;43656;57.746;11.780;2022-11-30T16:33:54;9.48;;;5.50;;
57826;SDS011;43656;57.746;11.780;2022-11-30T16:36:19;7.72;;;5.22;;
57826;SDS011;43656;57.746;11.780;2022-11-30T16:38:48;10.48;;;5.40;;
57826;SDS011;43656;57.746;11.780;2022-11-30T16:43:45;8.77;;;5.72;;
57826;SDS011;43656;57.746;11.780;2022-11-30T16:46:22;9.48;;;5.55;;
57826;SDS011;43656;57.746;11.780;2022-11-30T16:48:50;9.57;;;6.32;;
57826;SDS011;43656;57.746;11.780;2022-11-30T16:51:23;9.75;;;5.85;;
57826;SDS011;43656;57.746;11.780;2022-11-30T16:53:51;11.82;;;5.88;;
57826;SDS011;43656;57.746;11.780;2022-11-30T16:56:17;10.32;;;5.80;;
57826;SDS011;43656;57.746;11.780;2022-11-30T16:58:44;9.32;;;5.75;;
57826;SDS011;43656;57.746;11.780;2022-11-30T17:01:12;13.35;;;7.35;;
57826;SDS011;43656;57.746;11.780;2022-11-30T17:03:39;16.75;;;9.63;;
57826;SDS011;43656;57.746;11.780;2022-11-30T17:06:08;30.85;;;15.85;;
57826;SDS011;43656;57.746;11.780;2022-11-30T17:08:40;23.45;;;13.40;;
57826;SDS011;43656;57.746;11.780;2022-11-30T17:11:08;29.80;;;15.68;;
57826;SDS011;43656;57.746;11.780;2022-11-30T17:13:40;17.13;;;8.37;;
57826;SDS011;43656;57.746;11.780;2022-11-30T17:16:07;65.50;;;35.50;;
57826;SDS011;43656;57.746;11.780;2022-11-30T17:18:33;27.30;;;13.30;;
57826;SDS011;43656;57.746;11.780;2022-11-30T17:20:59;73.90;;;24.70;;